Time;durP1;ratioP1;P1;durP2;ratioP2;P2;SDS_P1;SDS_P2;PMS_P1;PMS_P2;Temp;Humidity;BMP_temperature;BMP_pressure;BME280_temperature;BME280_humidity;BME280_pressure;Samples;Min_cycle;Max_cycle;Signal;HPM_P1;HPM_P2
2023/07/16 00:00:23;;;;;;;9.10;3.50;;;;;;;;;;5053188;28;20203;-79
2023/07/16 00:02:49;;;;;;;8.63;3.37;;;;;;;;;;5033185;28;20188;-80
2023/07/16 00:05:15;;;;;;;5.67;3.10;;;;;;;;;;5034430;28;20184;-80
2023/07/16 00:07:41;;;;;;;7.03;3.33;;;;;;;;;;5023087;28;20232;-81
2023/07/16 00:10:07;;;;;;;6.10;3.07;;;;;;;;;;5043276;28;20194;-81
2023/07/16 00:12:33;;;;;;;10.63;3.70;;;;;;;;;;5052426;28;20192;-81
2023/07/16 00:14:59;;;;;;;5.57;3.13;;;;;;;;;;5036775;28;20242;-81
2023/07/16 00:17:25;;;;;;;5.70;3.00;;;;;;;;;;5051569;28;20195;-80
2023/07/16 00:19:51;;;;;;;7.67;3.17;;;;;;;;;;5035082;28;20189;-80
2023/07/16 00:22:17;;;;;;;6.43;3.27;;;;;;;;;;5035311;28;20188;-79
2023/07/16 00:24:43;;;;;;;7.47;3.20;;;;;;;;;;5033427;28;20192;-81
2023/07/16 00:27:09;;;;;;;8.20;3.10;;;;;;;;;;5046730;28;20183;-81
2023/07/16 00:29:35;;;;;;;9.80;3.30;;;;;;;;;;5052138;28;20249;-80
2023/07/16 00:32:01;;;;;;;8.00;3.43;;;;;;;;;;5036350;28;20187;-81
2023/07/16 00:34:27;;;;;;;7.97;3.37;;;;;;;;;;5051776;28;20242;-80
2023/07/16 00:36:53;;;;;;;7.70;3.73;;;;;;;;;;5051941;28;20227;-80
2023/07/16 00:39:19;;;;;;;8.03;3.83;;;;;;;;;;5052769;28;20195;-79
2023/07/16 00:41:45;;;;;;;8.77;3.67;;;;;;;;;;5051999;28;20216;-79
2023/07/16 00:44:11;;;;;;;9.87;4.10;;;;;;;;;;5052654;28;20200;-79
2023/07/16 00:46:37;;;;;;;8.47;4.10;;;;;;;;;;5036244;28;20192;-79
2023/07/16 00:49:03;;;;;;;8.47;4.23;;;;;;;;;;5052611;28;20203;-79
2023/07/16 00:51:30;;;;;;;10.00;4.60;;;;;;;;;;5052065;28;20279;-79
2023/07/16 00:53:56;;;;;;;9.60;4.30;;;;;;;;;;5035381;28;20187;-79
2023/07/16 00:56:22;;;;;;;8.27;3.87;;;;;;;;;;5051089;28;20184;-79
2023/07/16 00:58:48;;;;;;;8.30;4.27;;;;;;;;;;5053330;28;20195;-79
2023/07/16 01:01:14;;;;;;;11.53;4.40;;;;;;;;;;5033219;28;20192;-79
2023/07/16 01:03:40;;;;;;;9.37;3.90;;;;;;;;;;5046392;28;20216;-79
2023/07/16 01:06:16;;;;;;;10.00;4.03;;;;;;;;;;5046777;28;20243;-79
2023/07/16 01:08:45;;;;;;;11.33;3.77;;;;;;;;;;5045010;28;20190;-79
2023/07/16 01:11:11;;;;;;;12.23;3.80;;;;;;;;;;5054888;28;20187;-76
2023/07/16 01:13:37;;;;;;;10.63;4.27;;;;;;;;;;5037206;28;20196;-76
2023/07/16 01:16:04;;;;;;;9.80;4.30;;;;;;;;;;5036957;28;20214;-76
2023/07/16 01:18:30;;;;;;;11.43;3.93;;;;;;;;;;5052168;28;20190;-76
2023/07/16 01:20:56;;;;;;;8.83;4.00;;;;;;;;;;5073399;28;20187;-76
2023/07/16 01:23:40;;;;;;;9.20;3.70;;;;;;;;;;5054718;28;20187;-76
2023/07/16 01:26:09;;;;;;;9.00;3.80;;;;;;;;;;5073910;28;20172;-76
2023/07/16 01:28:44;;;;;;;9.03;3.83;;;;;;;;;;5053068;28;20187;-77
2023/07/16 01:31:11;;;;;;;9.13;3.67;;;;;;;;;;5055084;28;20186;-76
2023/07/16 01:33:38;;;;;;;9.73;3.50;;;;;;;;;;5073193;28;20199;-76
2023/07/16 01:36:05;;;;;;;10.87;4.00;;;;;;;;;;5035771;28;20269;-76
2023/07/16 01:38:31;;;;;;;6.80;3.97;;;;;;;;;;5032327;28;20191;-76
2023/07/16 01:40:57;;;;;;;7.80;3.77;;;;;;;;;;5019456;28;20184;-75
2023/07/16 01:43:23;;;;;;;8.60;3.70;;;;;;;;;;5029989;28;20264;-76
2023/07/16 01:45:49;;;;;;;9.13;3.27;;;;;;;;;;5034796;28;20200;-76
2023/07/16 01:48:27;;;;;;;9.00;3.40;;;;;;;;;;5046727;28;20183;-76
2023/07/16 01:50:53;;;;;;;9.33;3.53;;;;;;;;;;5072922;28;20191;-76
2023/07/16 01:53:19;;;;;;;7.77;3.07;;;;;;;;;;5046218;28;20191;-76
2023/07/16 01:55:45;;;;;;;9.63;4.03;;;;;;;;;;5055059;28;20206;-76
2023/07/16 01:58:11;;;;;;;12.30;4.00;;;;;;;;;;5054894;28;20190;-76
2023/07/16 02:00:37;;;;;;;7.70;3.73;;;;;;;;;;5035264;28;20192;-79
2023/07/16 02:03:03;;;;;;;8.57;3.90;;;;;;;;;;5048878;28;20183;-79
2023/07/16 02:05:29;;;;;;;9.07;3.70;;;;;;;;;;5073599;28;20187;-80
2023/07/16 02:07:55;;;;;;;7.27;3.40;;;;;;;;;;5049344;28;20235;-79
2023/07/16 02:10:21;;;;;;;8.27;3.70;;;;;;;;;;5019684;28;20212;-79
2023/07/16 02:12:47;;;;;;;8.30;3.53;;;;;;;;;;5050904;28;20227;-79
2023/07/16 02:15:14;;;;;;;8.33;4.00;;;;;;;;;;5051413;28;20216;-78
2023/07/16 02:17:40;;;;;;;6.10;3.60;;;;;;;;;;5031961;28;20192;-80
2023/07/16 02:20:06;;;;;;;8.87;3.50;;;;;;;;;;5016429;28;20203;-80
2023/07/16 02:22:32;;;;;;;6.57;3.80;;;;;;;;;;5023590;28;20191;-80
2023/07/16 02:24:58;;;;;;;6.73;3.37;;;;;;;;;;5031714;28;20196;-80
2023/07/16 02:27:24;;;;;;;13.93;3.80;;;;;;;;;;5021003;28;20282;-80
2023/07/16 02:29:50;;;;;;;9.07;3.53;;;;;;;;;;5033981;28;20291;-80
2023/07/16 02:32:16;;;;;;;9.77;3.83;;;;;;;;;;5049887;28;20205;-80
2023/07/16 02:34:42;;;;;;;6.40;4.10;;;;;;;;;;5027482;28;20291;-80
2023/07/16 02:37:08;;;;;;;11.00;3.60;;;;;;;;;;5027969;28;20188;-80
2023/07/16 02:39:34;;;;;;;13.60;4.00;;;;;;;;;;5051120;28;20200;-80
2023/07/16 02:42:00;;;;;;;11.77;4.10;;;;;;;;;;5054575;28;20215;-80
2023/07/16 02:44:26;;;;;;;10.07;3.67;;;;;;;;;;5038813;28;20199;-80
2023/07/16 02:46:52;;;;;;;8.20;3.87;;;;;;;;;;5054993;28;20191;-78
2023/07/16 02:49:18;;;;;;;9.40;4.00;;;;;;;;;;5053881;28;20197;-79
2023/07/16 02:51:44;;;;;;;9.77;4.07;;;;;;;;;;5054964;28;20184;-76
2023/07/16 02:54:10;;;;;;;8.77;3.60;;;;;;;;;;5055088;28;20192;-76
2023/07/16 02:56:36;;;;;;;9.67;4.20;;;;;;;;;;5054681;28;20184;-75
2023/07/16 02:59:02;;;;;;;8.10;3.77;;;;;;;;;;5054632;28;20187;-76
2023/07/16 03:01:28;;;;;;;9.80;3.80;;;;;;;;;;5037545;28;20234;-76
2023/07/16 03:03:54;;;;;;;7.60;3.67;;;;;;;;;;5054077;28;20194;-75
2023/07/16 03:06:20;;;;;;;7.57;3.70;;;;;;;;;;5038621;28;20242;-76
2023/07/16 03:08:46;;;;;;;8.70;4.10;;;;;;;;;;5059070;28;20183;-79
2023/07/16 03:11:12;;;;;;;7.43;4.03;;;;;;;;;;5036064;28;20192;-78
2023/07/16 03:13:38;;;;;;;9.00;3.93;;;;;;;;;;5070358;28;20264;-79
2023/07/16 03:16:04;;;;;;;8.27;4.23;;;;;;;;;;5055337;28;20222;-79
2023/07/16 03:18:31;;;;;;;9.63;4.07;;;;;;;;;;5056325;28;20232;-79
2023/07/16 03:20:57;;;;;;;8.43;4.10;;;;;;;;;;5054076;28;20281;-79
2023/07/16 03:23:23;;;;;;;8.90;4.00;;;;;;;;;;5046663;28;20188;-79
2023/07/16 03:25:49;;;;;;;8.57;4.37;;;;;;;;;;5056439;28;20215;-79
2023/07/16 03:28:15;;;;;;;9.93;3.80;;;;;;;;;;5058379;28;20184;-79
2023/07/16 03:30:45;;;;;;;8.27;4.23;;;;;;;;;;5041102;28;20221;-79
2023/07/16 03:33:11;;;;;;;7.37;3.80;;;;;;;;;;5076000;28;20179;-79
2023/07/16 03:35:37;;;;;;;6.23;3.83;;;;;;;;;;5032277;28;20307;-79
2023/07/16 03:38:03;;;;;;;10.73;4.50;;;;;;;;;;5055404;28;20189;-79
2023/07/16 03:40:31;;;;;;;6.63;4.40;;;;;;;;;;5058317;28;20187;-80
2023/07/16 03:42:57;;;;;;;8.80;4.03;;;;;;;;;;5057672;28;20258;-80
2023/07/16 03:45:25;;;;;;;11.93;3.97;;;;;;;;;;5041452;28;20226;-80
2023/07/16 03:47:51;;;;;;;6.57;4.30;;;;;;;;;;5052672;28;20233;-80
2023/07/16 03:50:17;;;;;;;8.13;4.20;;;;;;;;;;5057737;28;20191;-81
2023/07/16 03:52:44;;;;;;;9.80;4.10;;;;;;;;;;5058378;28;20228;-80
2023/07/16 03:55:10;;;;;;;6.73;3.83;;;;;;;;;;5057493;28;20302;-80
2023/07/16 03:57:36;;;;;;;7.23;3.87;;;;;;;;;;5057601;28;20189;-79
2023/07/16 04:00:04;;;;;;;8.20;4.33;;;;;;;;;;5074489;28;20250;-79
2023/07/16 04:02:30;;;;;;;10.87;4.80;;;;;;;;;;5040141;28;20213;-79
2023/07/16 04:04:56;;;;;;;10.37;4.50;;;;;;;;;;5040287;28;20187;-79
2023/07/16 04:07:22;;;;;;;8.43;4.40;;;;;;;;;;5033223;28;20239;-79
2023/07/16 04:09:48;;;;;;;11.17;4.17;;;;;;;;;;5034250;28;20192;-79
2023/07/16 04:12:14;;;;;;;12.60;4.47;;;;;;;;;;5051047;28;20192;-78
2023/07/16 04:14:40;;;;;;;7.20;4.20;;;;;;;;;;5054935;28;20295;-76
2023/07/16 04:17:06;;;;;;;8.43;3.87;;;;;;;;;;5054434;28;20195;-76
2023/07/16 04:19:32;;;;;;;12.97;4.37;;;;;;;;;;5055648;28;20168;-75
2023/07/16 04:21:58;;;;;;;10.97;4.00;;;;;;;;;;5044958;28;20188;-75
2023/07/16 04:24:26;;;;;;;9.73;4.37;;;;;;;;;;5037778;28;20203;-77
2023/07/16 04:26:52;;;;;;;10.03;4.30;;;;;;;;;;5036636;28;20185;-76
2023/07/16 04:29:18;;;;;;;9.40;4.00;;;;;;;;;;5037152;28;20192;-76
2023/07/16 04:31:44;;;;;;;8.50;4.53;;;;;;;;;;5036536;28;20188;-75
2023/07/16 04:34:10;;;;;;;12.63;4.70;;;;;;;;;;5054750;28;20180;-75
2023/07/16 04:36:36;;;;;;;8.43;4.30;;;;;;;;;;5036739;28;20275;-75
2023/07/16 04:39:03;;;;;;;9.30;4.50;;;;;;;;;;5052769;28;20187;-75
2023/07/16 04:41:29;;;;;;;7.67;4.20;;;;;;;;;;5053510;28;20211;-74
2023/07/16 04:43:55;;;;;;;13.17;4.83;;;;;;;;;;5054405;28;20207;-74
2023/07/16 04:46:21;;;;;;;9.57;5.03;;;;;;;;;;5037151;28;20227;-76
2023/07/16 04:48:47;;;;;;;8.57;4.80;;;;;;;;;;5037477;28;20214;-81
2023/07/16 04:51:13;;;;;;;9.60;4.80;;;;;;;;;;5033451;28;20279;-81
2023/07/16 04:53:39;;;;;;;11.00;5.33;;;;;;;;;;5033812;28;20180;-80
2023/07/16 04:56:10;;;;;;;8.27;4.93;;;;;;;;;;5036747;28;20849;-81
2023/07/16 04:58:36;;;;;;;13.13;5.30;;;;;;;;;;5025857;28;20198;-80
2023/07/16 05:01:02;;;;;;;7.60;4.83;;;;;;;;;;5047289;28;20190;-81
2023/07/16 05:03:28;;;;;;;8.33;4.67;;;;;;;;;;5052716;28;20278;-81
2023/07/16 05:05:54;;;;;;;10.60;5.30;;;;;;;;;;5053441;28;20192;-75
2023/07/16 05:08:20;;;;;;;9.27;5.20;;;;;;;;;;5069982;28;20231;-75
2023/07/16 05:10:46;;;;;;;11.93;4.70;;;;;;;;;;5067062;28;20196;-76
2023/07/16 05:13:12;;;;;;;12.47;5.10;;;;;;;;;;5021881;28;20214;-75
2023/07/16 05:15:38;;;;;;;11.17;5.23;;;;;;;;;;5056055;28;20219;-76
2023/07/16 05:18:04;;;;;;;11.83;5.43;;;;;;;;;;5073787;28;20183;-75
2023/07/16 05:20:30;;;;;;;14.67;5.00;;;;;;;;;;5036171;28;20219;-75
2023/07/16 05:22:56;;;;;;;12.13;5.37;;;;;;;;;;5053124;28;20191;-74
2023/07/16 05:25:22;;;;;;;11.30;5.33;;;;;;;;;;5056195;28;20195;-75
2023/07/16 05:27:48;;;;;;;10.43;5.70;;;;;;;;;;5056166;28;20199;-75
2023/07/16 05:30:14;;;;;;;9.27;5.33;;;;;;;;;;5040059;28;20236;-75
2023/07/16 05:32:41;;;;;;;12.63;5.07;;;;;;;;;;5040123;28;20215;-75
2023/07/16 05:35:07;;;;;;;8.33;5.50;;;;;;;;;;5056776;28;20210;-75
2023/07/16 05:37:33;;;;;;;10.80;5.67;;;;;;;;;;5040252;28;20232;-78
2023/07/16 05:39:59;;;;;;;11.10;5.50;;;;;;;;;;5056504;28;20183;-79
2023/07/16 05:42:25;;;;;;;10.83;5.87;;;;;;;;;;5056484;28;20179;-79
2023/07/16 05:44:51;;;;;;;12.53;5.83;;;;;;;;;;5056370;28;20175;-79
2023/07/16 05:47:17;;;;;;;11.93;5.77;;;;;;;;;;5056669;28;20271;-79
2023/07/16 05:49:43;;;;;;;12.73;6.47;;;;;;;;;;5073936;28;20167;-79
2023/07/16 05:52:09;;;;;;;9.53;5.63;;;;;;;;;;5073477;28;20183;-79
2023/07/16 05:54:35;;;;;;;11.13;5.70;;;;;;;;;;5037499;28;20212;-78
2023/07/16 05:57:01;;;;;;;10.40;5.93;;;;;;;;;;5036708;28;20180;-78
2023/07/16 05:59:27;;;;;;;12.60;5.57;;;;;;;;;;5036165;28;20180;-78
2023/07/16 06:01:53;;;;;;;12.70;6.23;;;;;;;;;;5036267;28;20192;-78
2023/07/16 06:04:19;;;;;;;9.80;5.83;;;;;;;;;;5036247;28;20235;-79
2023/07/16 06:06:45;;;;;;;10.33;5.43;;;;;;;;;;5032752;28;20290;-79
2023/07/16 06:09:11;;;;;;;12.93;5.90;;;;;;;;;;5032832;28;20177;-79
2023/07/16 06:11:37;;;;;;;13.10;6.40;;;;;;;;;;5039686;28;20188;-75
2023/07/16 06:14:03;;;;;;;10.50;6.27;;;;;;;;;;5043788;28;20195;-75
2023/07/16 06:16:30;;;;;;;10.30;6.03;;;;;;;;;;5037460;28;20243;-75
2023/07/16 06:18:56;;;;;;;10.87;6.10;;;;;;;;;;5020262;28;20187;-75
2023/07/16 06:21:22;;;;;;;10.50;6.50;;;;;;;;;;5039544;28;20251;-75
2023/07/16 06:23:48;;;;;;;12.37;6.30;;;;;;;;;;5022471;28;20198;-76
2023/07/16 06:26:14;;;;;;;13.17;6.53;;;;;;;;;;5049540;28;20206;-75
2023/07/16 06:28:40;;;;;;;13.23;6.60;;;;;;;;;;5045226;28;20185;-76
2023/07/16 06:31:06;;;;;;;12.40;6.40;;;;;;;;;;5050275;28;20184;-75
2023/07/16 06:33:32;;;;;;;13.20;6.50;;;;;;;;;;5029936;28;20187;-75
2023/07/16 06:35:58;;;;;;;12.90;6.47;;;;;;;;;;5037401;28;20208;-75
2023/07/16 06:38:24;;;;;;;11.53;7.00;;;;;;;;;;5047360;28;20263;-75
2023/07/16 06:40:51;;;;;;;10.87;6.67;;;;;;;;;;5040445;28;20237;-75
2023/07/16 06:43:18;;;;;;;11.67;6.60;;;;;;;;;;5054848;28;20172;-75
2023/07/16 06:45:44;;;;;;;10.27;6.70;;;;;;;;;;5036067;28;20211;-79
2023/07/16 06:48:10;;;;;;;14.30;6.47;;;;;;;;;;5038933;28;20184;-80
2023/07/16 06:50:36;;;;;;;11.73;6.60;;;;;;;;;;5035673;28;20184;-80
2023/07/16 06:53:02;;;;;;;12.33;6.83;;;;;;;;;;5031929;28;20185;-80
2023/07/16 06:55:28;;;;;;;11.30;7.00;;;;;;;;;;5054842;28;20257;-79
2023/07/16 06:57:54;;;;;;;12.23;6.30;;;;;;;;;;5032377;28;20176;-80
2023/07/16 07:00:20;;;;;;;12.27;6.97;;;;;;;;;;5035686;28;20184;-76
2023/07/16 07:02:46;;;;;;;11.63;6.67;;;;;;;;;;5038563;28;20169;-75
2023/07/16 07:05:12;;;;;;;14.00;6.77;;;;;;;;;;5046482;28;20187;-75
2023/07/16 07:07:38;;;;;;;12.00;6.63;;;;;;;;;;5044418;28;20242;-75
2023/07/16 07:10:04;;;;;;;12.80;6.97;;;;;;;;;;5050699;28;20179;-75
2023/07/16 07:12:36;;;;;;;11.07;6.67;;;;;;;;;;5046340;28;20198;-75
2023/07/16 07:15:03;;;;;;;11.43;6.40;;;;;;;;;;5051273;28;20226;-75
2023/07/16 07:17:29;;;;;;;11.73;6.53;;;;;;;;;;5066678;28;20247;-75
2023/07/16 07:19:55;;;;;;;10.73;6.73;;;;;;;;;;5067178;28;20254;-75
2023/07/16 07:22:21;;;;;;;14.83;6.80;;;;;;;;;;5024789;28;20180;-75
2023/07/16 07:24:47;;;;;;;11.40;6.80;;;;;;;;;;5052997;28;20183;-75
2023/07/16 07:27:13;;;;;;;10.60;7.00;;;;;;;;;;5045838;28;20180;-75
2023/07/16 07:29:39;;;;;;;12.17;7.00;;;;;;;;;;5038671;28;20186;-76
2023/07/16 07:32:05;;;;;;;10.93;6.60;;;;;;;;;;5038811;28;20211;-76
2023/07/16 07:34:31;;;;;;;12.40;6.73;;;;;;;;;;5047787;28;20207;-76
2023/07/16 07:36:57;;;;;;;11.00;6.63;;;;;;;;;;5038077;28;20176;-76
2023/07/16 07:39:23;;;;;;;10.80;6.77;;;;;;;;;;5038328;28;20207;-75
2023/07/16 07:41:49;;;;;;;12.80;7.00;;;;;;;;;;5038548;28;20238;-75
2023/07/16 07:44:15;;;;;;;11.90;6.57;;;;;;;;;;5056084;28;20211;-76
2023/07/16 07:46:41;;;;;;;12.00;7.00;;;;;;;;;;5041401;28;20171;-76
2023/07/16 07:49:07;;;;;;;15.07;6.73;;;;;;;;;;5058414;28;20183;-76
2023/07/16 07:51:33;;;;;;;14.70;7.30;;;;;;;;;;5076075;28;20171;-79
2023/07/16 07:53:59;;;;;;;12.93;6.93;;;;;;;;;;5058338;28;20209;-80
2023/07/16 07:56:25;;;;;;;12.90;6.50;;;;;;;;;;5056150;28;20211;-80
2023/07/16 07:58:51;;;;;;;12.67;7.07;;;;;;;;;;5041297;28;20179;-80
2023/07/16 08:01:17;;;;;;;14.47;7.00;;;;;;;;;;5058016;28;20233;-80
2023/07/16 08:03:43;;;;;;;10.80;6.30;;;;;;;;;;5045035;28;20207;-80
2023/07/16 08:06:11;;;;;;;11.37;6.83;;;;;;;;;;5047267;28;20221;-80
2023/07/16 08:08:37;;;;;;;10.10;6.57;;;;;;;;;;5042032;28;20270;-76
2023/07/16 08:11:03;;;;;;;14.43;6.70;;;;;;;;;;5041495;28;20210;-76
2023/07/16 08:13:29;;;;;;;14.47;7.07;;;;;;;;;;5056998;28;20183;-76
2023/07/16 08:15:55;;;;;;;11.10;6.50;;;;;;;;;;5036503;28;20207;-76
2023/07/16 08:18:21;;;;;;;12.77;6.90;;;;;;;;;;5057558;28;20186;-76
2023/07/16 08:20:48;;;;;;;14.27;6.63;;;;;;;;;;5057305;23;20236;-81
2023/07/16 08:23:14;;;;;;;13.80;6.90;;;;;;;;;;5029573;28;20262;-80
2023/07/16 08:25:40;;;;;;;12.53;6.60;;;;;;;;;;5031289;28;20184;-80
2023/07/16 08:28:07;;;;;;;11.20;6.67;;;;;;;;;;5031051;28;20184;-80
2023/07/16 08:30:33;;;;;;;12.10;6.73;;;;;;;;;;5056945;28;20186;-80
2023/07/16 08:32:59;;;;;;;11.03;6.47;;;;;;;;;;5057493;28;20179;-80
2023/07/16 08:35:25;;;;;;;12.83;6.57;;;;;;;;;;5056896;28;20227;-80
2023/07/16 08:37:51;;;;;;;9.70;6.17;;;;;;;;;;5040140;28;20203;-80
2023/07/16 08:40:18;;;;;;;11.30;6.60;;;;;;;;;;5040592;28;20179;-80
2023/07/16 08:42:46;;;;;;;11.50;6.60;;;;;;;;;;5057298;28;20175;-80
2023/07/16 08:45:12;;;;;;;15.93;6.67;;;;;;;;;;5057242;28;20179;-80
2023/07/16 08:47:38;;;;;;;12.23;6.73;;;;;;;;;;5057441;28;20186;-80
2023/07/16 08:50:05;;;;;;;9.50;6.30;;;;;;;;;;5050368;28;20262;-80
2023/07/16 08:52:31;;;;;;;13.87;6.47;;;;;;;;;;5036914;28;20180;-80
2023/07/16 08:54:57;;;;;;;12.10;6.30;;;;;;;;;;5020351;28;20220;-80
2023/07/16 08:57:23;;;;;;;11.63;6.40;;;;;;;;;;5036839;28;20191;-76
2023/07/16 08:59:50;;;;;;;13.57;6.03;;;;;;;;;;5027679;28;20191;-77
2023/07/16 09:02:18;;;;;;;10.83;6.53;;;;;;;;;;5074369;28;20175;-76
2023/07/16 09:04:44;;;;;;;11.43;6.17;;;;;;;;;;5056299;28;20187;-76
2023/07/16 09:07:10;;;;;;;13.67;6.43;;;;;;;;;;5057703;28;20198;-76
2023/07/16 09:09:36;;;;;;;9.90;6.23;;;;;;;;;;5020189;28;20188;-76
2023/07/16 09:12:03;;;;;;;10.53;6.33;;;;;;;;;;5036725;28;20282;-76
2023/07/16 09:14:29;;;;;;;11.37;6.20;;;;;;;;;;5028152;28;20198;-80
2023/07/16 09:16:55;;;;;;;9.67;6.10;;;;;;;;;;5039908;28;20179;-80
2023/07/16 09:19:21;;;;;;;13.60;6.57;;;;;;;;;;5040804;28;20175;-80
2023/07/16 09:21:48;;;;;;;16.17;6.67;;;;;;;;;;5071477;28;20222;-80
2023/07/16 09:24:14;;;;;;;12.17;6.50;;;;;;;;;;5040529;28;20186;-80
2023/07/16 09:26:48;;;;;;;10.20;5.83;;;;;;;;;;5056550;28;20269;-80
2023/07/16 09:29:14;;;;;;;12.13;6.83;;;;;;;;;;5056285;28;20178;-80
2023/07/16 09:31:51;;;;;;;10.33;6.23;;;;;;;;;;5039964;28;20183;-76
2023/07/16 09:34:17;;;;;;;14.73;6.20;;;;;;;;;;5056459;28;20167;-76
2023/07/16 09:36:43;;;;;;;8.97;6.10;;;;;;;;;;5040080;28;20179;-76
2023/07/16 09:39:09;;;;;;;9.70;5.93;;;;;;;;;;5039928;28;20280;-76
2023/07/16 09:41:38;;;;;;;12.70;6.30;;;;;;;;;;5056161;28;20266;-76
2023/07/16 09:44:04;;;;;;;9.53;6.20;;;;;;;;;;5037879;28;20191;-76
2023/07/16 09:46:30;;;;;;;10.43;6.23;;;;;;;;;;5039546;28;20187;-76
2023/07/16 09:48:56;;;;;;;10.07;5.70;;;;;;;;;;5056218;28;20183;-87
2023/07/16 09:51:23;;;;;;;9.90;5.57;;;;;;;;;;5044316;28;20175;-88
2023/07/16 09:53:50;;;;;;;10.50;5.70;;;;;;;;;;5060727;28;20191;-87
2023/07/16 09:56:18;;;;;;;11.13;5.80;;;;;;;;;;5060233;28;20249;-87
2023/07/16 09:58:44;;;;;;;9.03;5.70;;;;;;;;;;5060634;28;20171;-86
2023/07/16 10:01:10;;;;;;;10.33;6.20;;;;;;;;;;5044796;28;20183;-87
2023/07/16 10:03:36;;;;;;;11.43;5.70;;;;;;;;;;5059450;28;20202;-76
2023/07/16 10:06:08;;;;;;;9.17;5.90;;;;;;;;;;5039998;28;20215;-76
2023/07/16 10:08:35;;;;;;;13.27;6.07;;;;;;;;;;5040016;28;20176;-77
2023/07/16 10:11:01;;;;;;;7.93;6.17;;;;;;;;;;5053071;28;20183;-76
2023/07/16 10:13:27;;;;;;;9.07;6.13;;;;;;;;;;5072658;28;20183;-77
2023/07/16 10:15:54;;;;;;;11.13;6.20;;;;;;;;;;5077358;28;20199;-77
2023/07/16 10:18:27;;;;;;;11.13;6.07;;;;;;;;;;5077468;28;20167;-76
2023/07/16 10:20:53;;;;;;;9.83;6.07;;;;;;;;;;5077534;28;20269;-80
2023/07/16 10:23:19;;;;;;;10.70;5.87;;;;;;;;;;5059226;28;20183;-80
2023/07/16 10:25:59;;;;;;;11.10;6.13;;;;;;;;;;5075407;28;20194;-80
2023/07/16 10:28:25;;;;;;;9.90;6.17;;;;;;;;;;5077118;28;20225;-80
2023/07/16 10:30:51;;;;;;;9.10;5.60;;;;;;;;;;5059484;28;20179;-80
2023/07/16 10:33:17;;;;;;;8.17;5.67;;;;;;;;;;5042924;28;20195;-81
2023/07/16 10:35:45;;;;;;;11.77;6.13;;;;;;;;;;5043070;28;20230;-81
2023/07/16 10:38:11;;;;;;;8.00;5.40;;;;;;;;;;5060172;28;20182;-81
2023/07/16 10:40:41;;;;;;;8.97;5.40;;;;;;;;;;5059715;28;20206;-80
2023/07/16 10:43:07;;;;;;;12.53;6.13;;;;;;;;;;5042508;28;20226;-81
2023/07/16 10:45:33;;;;;;;13.67;6.20;;;;;;;;;;5059782;28;20179;-81
2023/07/16 10:47:59;;;;;;;8.93;5.60;;;;;;;;;;5042687;28;20214;-81
2023/07/16 10:50:25;;;;;;;9.25;5.82;;;;;;;;;;5058899;28;20483;-81
2023/07/16 10:52:53;;;;;;;9.03;5.37;;;;;;;;;;5042487;28;20183;-81
2023/07/16 10:55:19;;;;;;;9.07;5.57;;;;;;;;;;5077058;28;20286;-80
2023/07/16 10:57:49;;;;;;;14.13;6.00;;;;;;;;;;5042930;28;20171;-80
2023/07/16 11:00:16;;;;;;;8.47;5.77;;;;;;;;;;5058508;28;20179;-80
2023/07/16 11:02:43;;;;;;;10.38;6.00;;;;;;;;;;5048677;28;20422;-80
2023/07/16 11:05:13;;;;;;;10.03;6.20;;;;;;;;;;5058542;28;20198;-80
2023/07/16 11:07:43;;;;;;;8.73;4.93;;;;;;;;;;5049361;28;20179;-80
2023/07/16 11:10:09;;;;;;;9.80;5.50;;;;;;;;;;5058564;28;20249;-80
2023/07/16 11:12:35;;;;;;;8.93;5.27;;;;;;;;;;5022656;28;20182;-81
2023/07/16 11:15:01;;;;;;;9.40;5.17;;;;;;;;;;5022194;28;20295;-81
2023/07/16 11:17:27;;;;;;;10.03;4.87;;;;;;;;;;5028904;28;20187;-80
2023/07/16 11:19:54;;;;;;;7.97;4.97;;;;;;;;;;5041210;28;20190;-80
2023/07/16 11:22:25;;;;;;;8.30;5.30;;;;;;;;;;5042017;28;20249;-80
2023/07/16 11:24:51;;;;;;;10.40;5.20;;;;;;;;;;5076041;28;20175;-80
2023/07/16 11:27:18;;;;;;;10.93;5.50;;;;;;;;;;5054934;28;20472;-77
2023/07/16 11:29:52;;;;;;;9.83;5.13;;;;;;;;;;5043456;28;20188;-77
2023/07/16 11:32:27;;;;;;;9.03;5.30;;;;;;;;;;5050190;28;20183;-78
2023/07/16 11:34:56;;;;;;;10.40;5.40;;;;;;;;;;5057865;28;20218;-77
2023/07/16 11:37:24;;;;;;;10.00;5.33;;;;;;;;;;5056526;28;20171;-78
2023/07/16 11:39:50;;;;;;;8.33;5.53;;;;;;;;;;5056522;28;20180;-78
2023/07/16 11:42:23;;;;;;;8.83;5.27;;;;;;;;;;5058121;28;20182;-78
2023/07/16 11:44:50;;;;;;;8.67;5.73;;;;;;;;;;5058021;28;20171;-81
2023/07/16 11:47:16;;;;;;;9.30;5.37;;;;;;;;;;5057301;28;20186;-81
2023/07/16 11:49:42;;;;;;;7.27;5.13;;;;;;;;;;5056183;28;20183;-81
2023/07/16 11:52:08;;;;;;;8.87;5.23;;;;;;;;;;5057965;28;20180;-81
2023/07/16 11:54:34;;;;;;;8.53;5.30;;;;;;;;;;5041236;28;20179;-82
2023/07/16 11:57:00;;;;;;;9.07;5.00;;;;;;;;;;5041258;28;20184;-82
2023/07/16 11:59:27;;;;;;;9.33;5.20;;;;;;;;;;5040597;28;20203;-82
2023/07/16 12:01:54;;;;;;;11.10;5.50;;;;;;;;;;5036500;28;20188;-79
2023/07/16 12:04:20;;;;;;;12.23;6.10;;;;;;;;;;5037602;28;20195;-78
2023/07/16 12:06:46;;;;;;;9.20;5.87;;;;;;;;;;5027777;28;20198;-78
2023/07/16 12:09:12;;;;;;;9.57;5.13;;;;;;;;;;5056420;28;20187;-78
2023/07/16 12:11:39;;;;;;;7.10;5.50;;;;;;;;;;5040731;28;20187;-78
2023/07/16 12:14:05;;;;;;;9.23;5.83;;;;;;;;;;5040187;28;20271;-78
2023/07/16 12:16:32;;;;;;;11.07;5.57;;;;;;;;;;5042165;28;20235;-78
2023/07/16 12:18:58;;;;;;;8.30;5.40;;;;;;;;;;5036548;28;20192;-82
2023/07/16 12:21:24;;;;;;;9.37;5.70;;;;;;;;;;5033998;28;20226;-82
2023/07/16 12:23:50;;;;;;;9.10;5.47;;;;;;;;;;5056545;28;20202;-82
2023/07/16 12:26:16;;;;;;;9.47;5.77;;;;;;;;;;5051930;28;20179;-80
2023/07/16 12:28:42;;;;;;;9.23;6.30;;;;;;;;;;5057217;28;20183;-80
2023/07/16 12:31:08;;;;;;;11.97;5.90;;;;;;;;;;5065078;28;20312;-80
2023/07/16 12:33:34;;;;;;;10.03;6.23;;;;;;;;;;5051813;28;20179;-77
2023/07/16 12:36:00;;;;;;;9.47;5.90;;;;;;;;;;5038699;28;20211;-76
2023/07/16 12:38:26;;;;;;;9.70;6.17;;;;;;;;;;5075199;28;20266;-76
2023/07/16 12:40:52;;;;;;;10.90;5.47;;;;;;;;;;5057055;28;20220;-76
2023/07/16 12:43:18;;;;;;;7.50;5.75;;;;;;;;;;5057170;28;20179;-77
2023/07/16 12:45:44;;;;;;;11.50;6.00;;;;;;;;;;5056861;28;20191;-77
2023/07/16 12:48:10;;;;;;;9.18;5.22;;;;;;;;;;5040207;28;20183;-76
2023/07/16 12:50:36;;;;;;;8.57;5.90;;;;;;;;;;5040329;28;20190;-80
2023/07/16 12:53:03;;;;;;;10.05;5.57;;;;;;;;;;5040223;28;20187;-80
2023/07/16 12:55:31;;;;;;;8.90;5.80;;;;;;;;;;5056731;28;20293;-81
2023/07/16 12:57:57;;;;;;;8.75;4.97;;;;;;;;;;5056693;28;20167;-80
2023/07/16 13:00:23;;;;;;;10.27;5.38;;;;;;;;;;5035551;28;20195;-81
2023/07/16 13:02:49;;;;;;;9.80;5.57;;;;;;;;;;5036553;28;20176;-81
2023/07/16 13:05:15;;;;;;;8.52;4.72;;;;;;;;;;5036812;28;20199;-81
2023/07/16 13:07:41;;;;;;;8.52;4.70;;;;;;;;;;5036534;28;20277;-77
2023/07/16 13:10:07;;;;;;;7.05;4.80;;;;;;;;;;5035525;28;20199;-77
2023/07/16 13:12:33;;;;;;;9.77;5.00;;;;;;;;;;5035270;28;20176;-77
2023/07/16 13:14:59;;;;;;;7.70;5.22;;;;;;;;;;5053825;28;20211;-77
2023/07/16 13:17:25;;;;;;;7.93;4.88;;;;;;;;;;5039913;28;20223;-77
2023/07/16 13:19:51;;;;;;;5.75;4.40;;;;;;;;;;5056253;28;20227;-77
2023/07/16 13:22:17;;;;;;;6.03;4.50;;;;;;;;;;5055287;28;20265;-77
2023/07/16 13:24:43;;;;;;;7.80;4.30;;;;;;;;;;5039474;28;20187;-77
2023/07/16 13:27:25;;;;;;;6.65;4.47;;;;;;;;;;5055987;28;20182;-78
2023/07/16 13:29:51;;;;;;;9.50;4.45;;;;;;;;;;5055365;28;20246;-76
2023/07/16 13:32:17;;;;;;;6.85;4.60;;;;;;;;;;5056116;28;20229;-77
2023/07/16 13:34:43;;;;;;;6.72;4.38;;;;;;;;;;5056211;28;20200;-77
2023/07/16 13:37:10;;;;;;;8.80;4.57;;;;;;;;;;5055923;28;20201;-78
2023/07/16 13:39:36;;;;;;;8.90;4.45;;;;;;;;;;5072740;28;20254;-77
2023/07/16 13:42:02;;;;;;;8.80;5.07;;;;;;;;;;5052563;28;20171;-88
2023/07/16 13:44:28;;;;;;;7.33;4.40;;;;;;;;;;5053935;28;20222;-87
2023/07/16 13:46:54;;;;;;;10.00;4.68;;;;;;;;;;5036863;28;20196;-87
2023/07/16 13:49:20;;;;;;;9.35;5.00;;;;;;;;;;5035090;28;20271;-87
2023/07/16 13:51:46;;;;;;;7.85;4.47;;;;;;;;;;5036021;28;20203;-89
2023/07/16 13:54:12;;;;;;;8.00;4.55;;;;;;;;;;5019760;28;20191;-86
2023/07/16 13:56:38;;;;;;;6.80;3.58;;;;;;;;;;5034922;28;20216;-86
2023/07/16 13:59:04;;;;;;;8.75;4.10;;;;;;;;;;5036302;28;20198;-78
2023/07/16 14:01:30;;;;;;;7.18;4.05;;;;;;;;;;5037252;28;20176;-78
2023/07/16 14:03:56;;;;;;;5.35;3.95;;;;;;;;;;5030120;28;20269;-78
2023/07/16 14:06:22;;;;;;;6.10;3.92;;;;;;;;;;5019519;28;20191;-77
2023/07/16 14:08:48;;;;;;;5.25;3.72;;;;;;;;;;5019441;28;20192;-77
2023/07/16 14:11:16;;;;;;;6.68;3.78;;;;;;;;;;5035914;28;20188;-77
2023/07/16 14:13:42;;;;;;;6.68;3.40;;;;;;;;;;5043305;28;20176;-81
2023/07/16 14:16:08;;;;;;;5.78;3.72;;;;;;;;;;5031415;28;20239;-81
2023/07/16 14:18:34;;;;;;;7.88;3.70;;;;;;;;;;5035738;28;20164;-81
2023/07/16 14:21:02;;;;;;;4.80;3.42;;;;;;;;;;5053274;28;20271;-81
2023/07/16 14:23:28;;;;;;;4.95;3.08;;;;;;;;;;5046649;28;20180;-81
2023/07/16 14:25:54;;;;;;;5.25;3.40;;;;;;;;;;5055546;28;20178;-81
2023/07/16 14:28:21;;;;;;;6.25;3.42;;;;;;;;;;5039073;28;20172;-81
2023/07/16 14:30:47;;;;;;;4.63;3.35;;;;;;;;;;5054936;28;20183;-77